sensor_id;sensor_type;location;lat;lon;timestamp;P1;durP1;ratioP1;P2;durP2;ratioP2
19569;SDS011;9931;51.458;7.256;2023-07-16T00:02:19;16.67;;;1.90;;
19569;SDS011;9931;51.458;7.256;2023-07-16T00:04:44;14.70;;;1.67;;
19569;SDS011;9931;51.458;7.256;2023-07-16T00:07:09;13.13;;;1.43;;
19569;SDS011;9931;51.458;7.256;2023-07-16T00:09:35;11.75;;;1.40;;
19569;SDS011;9931;51.458;7.256;2023-07-16T00:12:01;81.90;;;5.85;;
19569;SDS011;9931;51.458;7.256;2023-07-16T00:14:26;43.50;;;3.42;;
19569;SDS011;9931;51.458;7.256;2023-07-16T00:16:51;13.02;;;1.40;;
19569;SDS011;9931;51.458;7.256;2023-07-16T00:19:16;39.53;;;3.05;;
19569;SDS011;9931;51.458;7.256;2023-07-16T00:21:41;16.90;;;1.67;;
19569;SDS011;9931;51.458;7.256;2023-07-16T00:24:07;29.90;;;2.60;;
19569;SDS011;9931;51.458;7.256;2023-07-16T00:26:32;23.23;;;2.03;;
19569;SDS011;9931;51.458;7.256;2023-07-16T00:28:57;70.28;;;5.22;;
19569;SDS011;9931;51.458;7.256;2023-07-16T00:31:22;45.40;;;3.50;;
19569;SDS011;9931;51.458;7.256;2023-07-16T00:33:48;13.90;;;1.40;;
19569;SDS011;9931;51.458;7.256;2023-07-16T00:36:13;17.95;;;1.75;;
19569;SDS011;9931;51.458;7.256;2023-07-16T00:38:38;42.95;;;3.30;;
19569;SDS011;9931;51.458;7.256;2023-07-16T00:41:05;31.20;;;2.60;;
19569;SDS011;9931;51.458;7.256;2023-07-16T00:43:30;34.33;;;2.83;;
19569;SDS011;9931;51.458;7.256;2023-07-16T00:45:55;10.63;;;1.23;;
19569;SDS011;9931;51.458;7.256;2023-07-16T00:48:21;32.88;;;2.67;;
19569;SDS011;9931;51.458;7.256;2023-07-16T00:50:46;17.77;;;1.65;;
19569;SDS011;9931;51.458;7.256;2023-07-16T00:53:12;16.05;;;1.65;;
19569;SDS011;9931;51.458;7.256;2023-07-16T00:55:37;37.78;;;3.10;;
19569;SDS011;9931;51.458;7.256;2023-07-16T00:58:03;12.73;;;1.33;;
19569;SDS011;9931;51.458;7.256;2023-07-16T01:00:30;14.60;;;1.52;;
19569;SDS011;9931;51.458;7.256;2023-07-16T01:02:56;18.02;;;1.75;;
19569;SDS011;9931;51.458;7.256;2023-07-16T01:05:21;18.10;;;1.80;;
19569;SDS011;9931;51.458;7.256;2023-07-16T01:07:51;17.65;;;1.73;;
19569;SDS011;9931;51.458;7.256;2023-07-16T01:10:20;31.33;;;2.72;;
19569;SDS011;9931;51.458;7.256;2023-07-16T01:12:46;29.33;;;2.55;;
19569;SDS011;9931;51.458;7.256;2023-07-16T01:15:11;15.23;;;1.58;;
19569;SDS011;9931;51.458;7.256;2023-07-16T01:17:37;20.83;;;1.90;;
19569;SDS011;9931;51.458;7.256;2023-07-16T01:20:02;66.63;;;5.03;;
19569;SDS011;9931;51.458;7.256;2023-07-16T01:22:34;23.05;;;2.00;;
19569;SDS011;9931;51.458;7.256;2023-07-16T01:25:07;46.17;;;3.58;;
19569;SDS011;9931;51.458;7.256;2023-07-16T01:30:03;18.52;;;1.77;;
19569;SDS011;9931;51.458;7.256;2023-07-16T01:32:32;26.23;;;2.25;;
19569;SDS011;9931;51.458;7.256;2023-07-16T01:34:58;50.90;;;3.92;;
19569;SDS011;9931;51.458;7.256;2023-07-16T01:37:23;13.07;;;1.30;;
19569;SDS011;9931;51.458;7.256;2023-07-16T01:39:49;16.25;;;1.60;;
19569;SDS011;9931;51.458;7.256;2023-07-16T01:42:14;16.50;;;1.70;;
19569;SDS011;9931;51.458;7.256;2023-07-16T01:44:39;37.97;;;2.97;;
19569;SDS011;9931;51.458;7.256;2023-07-16T01:49:30;44.55;;;3.45;;
19569;SDS011;9931;51.458;7.256;2023-07-16T01:51:56;17.67;;;1.48;;
19569;SDS011;9931;51.458;7.256;2023-07-16T01:54:21;16.03;;;1.47;;
19569;SDS011;9931;51.458;7.256;2023-07-16T01:56:46;26.40;;;2.33;;
19569;SDS011;9931;51.458;7.256;2023-07-16T01:59:11;37.73;;;2.90;;
19569;SDS011;9931;51.458;7.256;2023-07-16T02:01:36;17.48;;;1.63;;
19569;SDS011;9931;51.458;7.256;2023-07-16T02:04:02;20.87;;;1.90;;
19569;SDS011;9931;51.458;7.256;2023-07-16T02:06:27;74.65;;;5.28;;
19569;SDS011;9931;51.458;7.256;2023-07-16T02:08:52;47.73;;;3.90;;
19569;SDS011;9931;51.458;7.256;2023-07-16T02:11:17;37.43;;;2.90;;
19569;SDS011;9931;51.458;7.256;2023-07-16T02:13:42;16.25;;;1.52;;
19569;SDS011;9931;51.458;7.256;2023-07-16T02:16:08;37.10;;;2.93;;
19569;SDS011;9931;51.458;7.256;2023-07-16T02:18:33;80.23;;;5.83;;
19569;SDS011;9931;51.458;7.256;2023-07-16T02:20:58;47.10;;;3.63;;
19569;SDS011;9931;51.458;7.256;2023-07-16T02:23:23;50.87;;;4.00;;
19569;SDS011;9931;51.458;7.256;2023-07-16T02:25:48;9.68;;;1.05;;
19569;SDS011;9931;51.458;7.256;2023-07-16T02:28:13;13.60;;;1.23;;
19569;SDS011;9931;51.458;7.256;2023-07-16T02:30:40;15.83;;;1.50;;
19569;SDS011;9931;51.458;7.256;2023-07-16T02:33:05;16.42;;;1.50;;
19569;SDS011;9931;51.458;7.256;2023-07-16T02:35:30;32.60;;;2.77;;
19569;SDS011;9931;51.458;7.256;2023-07-16T02:37:56;18.03;;;1.70;;
19569;SDS011;9931;51.458;7.256;2023-07-16T02:40:21;45.33;;;3.50;;
19569;SDS011;9931;51.458;7.256;2023-07-16T02:42:46;15.73;;;1.60;;
19569;SDS011;9931;51.458;7.256;2023-07-16T02:45:11;14.27;;;1.48;;
19569;SDS011;9931;51.458;7.256;2023-07-16T02:47:37;20.08;;;1.88;;
19569;SDS011;9931;51.458;7.256;2023-07-16T02:50:02;15.93;;;1.53;;
19569;SDS011;9931;51.458;7.256;2023-07-16T02:52:27;50.38;;;3.88;;
19569;SDS011;9931;51.458;7.256;2023-07-16T02:54:52;24.42;;;2.13;;
19569;SDS011;9931;51.458;7.256;2023-07-16T02:57:17;39.20;;;3.17;;
19569;SDS011;9931;51.458;7.256;2023-07-16T02:59:43;51.17;;;3.90;;
19569;SDS011;9931;51.458;7.256;2023-07-16T03:02:08;26.47;;;2.47;;
19569;SDS011;9931;51.458;7.256;2023-07-16T03:04:33;17.63;;;1.67;;
19569;SDS011;9931;51.458;7.256;2023-07-16T03:06:58;19.57;;;1.90;;
19569;SDS011;9931;51.458;7.256;2023-07-16T03:09:23;78.10;;;5.67;;
19569;SDS011;9931;51.458;7.256;2023-07-16T03:11:49;24.00;;;2.07;;
19569;SDS011;9931;51.458;7.256;2023-07-16T03:14:14;12.30;;;1.17;;
19569;SDS011;9931;51.458;7.256;2023-07-16T03:16:40;21.20;;;1.92;;
19569;SDS011;9931;51.458;7.256;2023-07-16T03:19:06;55.45;;;4.28;;
19569;SDS011;9931;51.458;7.256;2023-07-16T03:21:31;25.02;;;2.22;;
19569;SDS011;9931;51.458;7.256;2023-07-16T03:23:56;52.45;;;4.03;;
19569;SDS011;9931;51.458;7.256;2023-07-16T03:26:21;16.30;;;1.63;;
19569;SDS011;9931;51.458;7.256;2023-07-16T03:28:47;13.23;;;1.27;;
19569;SDS011;9931;51.458;7.256;2023-07-16T03:31:12;12.23;;;1.27;;
19569;SDS011;9931;51.458;7.256;2023-07-16T03:33:37;17.57;;;1.57;;
19569;SDS011;9931;51.458;7.256;2023-07-16T03:36:02;54.90;;;4.00;;
19569;SDS011;9931;51.458;7.256;2023-07-16T03:38:27;31.48;;;2.58;;
19569;SDS011;9931;51.458;7.256;2023-07-16T03:40:53;16.80;;;1.60;;
19569;SDS011;9931;51.458;7.256;2023-07-16T03:43:18;15.00;;;1.43;;
19569;SDS011;9931;51.458;7.256;2023-07-16T03:45:43;41.60;;;3.33;;
19569;SDS011;9931;51.458;7.256;2023-07-16T03:48:08;17.80;;;1.70;;
19569;SDS011;9931;51.458;7.256;2023-07-16T03:50:34;20.80;;;1.90;;
19569;SDS011;9931;51.458;7.256;2023-07-16T03:52:59;10.85;;;1.17;;
19569;SDS011;9931;51.458;7.256;2023-07-16T03:55:24;35.05;;;2.88;;
19569;SDS011;9931;51.458;7.256;2023-07-16T03:57:50;35.83;;;2.92;;
19569;SDS011;9931;51.458;7.256;2023-07-16T04:00:15;26.98;;;2.25;;
19569;SDS011;9931;51.458;7.256;2023-07-16T04:02:40;32.50;;;2.70;;
19569;SDS011;9931;51.458;7.256;2023-07-16T04:05:06;26.10;;;2.15;;
19569;SDS011;9931;51.458;7.256;2023-07-16T04:07:31;28.15;;;2.25;;
19569;SDS011;9931;51.458;7.256;2023-07-16T04:09:56;49.88;;;3.60;;
19569;SDS011;9931;51.458;7.256;2023-07-16T04:12:22;11.60;;;1.27;;
19569;SDS011;9931;51.458;7.256;2023-07-16T04:14:47;17.67;;;1.60;;
19569;SDS011;9931;51.458;7.256;2023-07-16T04:17:12;48.10;;;3.58;;
19569;SDS011;9931;51.458;7.256;2023-07-16T04:19:38;20.65;;;1.85;;
19569;SDS011;9931;51.458;7.256;2023-07-16T04:22:03;18.27;;;1.58;;
19569;SDS011;9931;51.458;7.256;2023-07-16T04:24:28;71.82;;;5.13;;
19569;SDS011;9931;51.458;7.256;2023-07-16T04:26:53;23.48;;;1.98;;
19569;SDS011;9931;51.458;7.256;2023-07-16T04:29:19;56.15;;;4.03;;
19569;SDS011;9931;51.458;7.256;2023-07-16T04:31:44;22.85;;;1.98;;
19569;SDS011;9931;51.458;7.256;2023-07-16T04:34:09;19.08;;;1.75;;
19569;SDS011;9931;51.458;7.256;2023-07-16T04:36:34;22.52;;;1.95;;
19569;SDS011;9931;51.458;7.256;2023-07-16T04:39:00;67.53;;;5.03;;
19569;SDS011;9931;51.458;7.256;2023-07-16T04:41:25;15.00;;;1.42;;
19569;SDS011;9931;51.458;7.256;2023-07-16T04:43:50;52.03;;;3.90;;
19569;SDS011;9931;51.458;7.256;2023-07-16T04:46:15;20.02;;;1.73;;
19569;SDS011;9931;51.458;7.256;2023-07-16T04:48:41;34.85;;;2.72;;
19569;SDS011;9931;51.458;7.256;2023-07-16T04:51:06;13.95;;;1.45;;
19569;SDS011;9931;51.458;7.256;2023-07-16T04:53:31;30.57;;;2.60;;
19569;SDS011;9931;51.458;7.256;2023-07-16T04:55:57;20.55;;;1.73;;
19569;SDS011;9931;51.458;7.256;2023-07-16T04:58:22;43.60;;;3.33;;
19569;SDS011;9931;51.458;7.256;2023-07-16T05:00:47;21.27;;;1.83;;
19569;SDS011;9931;51.458;7.256;2023-07-16T05:03:12;26.13;;;2.17;;
19569;SDS011;9931;51.458;7.256;2023-07-16T05:05:37;30.73;;;2.50;;
19569;SDS011;9931;51.458;7.256;2023-07-16T05:08:03;24.98;;;2.05;;
19569;SDS011;9931;51.458;7.256;2023-07-16T05:10:28;27.13;;;2.25;;
19569;SDS011;9931;51.458;7.256;2023-07-16T05:12:53;17.02;;;1.48;;
19569;SDS011;9931;51.458;7.256;2023-07-16T05:15:18;27.17;;;2.27;;
19569;SDS011;9931;51.458;7.256;2023-07-16T05:17:44;18.17;;;1.67;;
19569;SDS011;9931;51.458;7.256;2023-07-16T05:20:09;19.90;;;2.00;;
19569;SDS011;9931;51.458;7.256;2023-07-16T05:22:34;68.53;;;5.03;;
19569;SDS011;9931;51.458;7.256;2023-07-16T05:24:59;21.27;;;2.25;;
19569;SDS011;9931;51.458;7.256;2023-07-16T05:27:25;25.40;;;2.58;;
19569;SDS011;9931;51.458;7.256;2023-07-16T05:29:50;23.13;;;2.77;;
19569;SDS011;9931;51.458;7.256;2023-07-16T05:32:15;20.08;;;2.60;;
19569;SDS011;9931;51.458;7.256;2023-07-16T05:34:41;44.72;;;4.32;;
19569;SDS011;9931;51.458;7.256;2023-07-16T05:37:06;7.15;;;1.75;;
19569;SDS011;9931;51.458;7.256;2023-07-16T05:39:31;30.13;;;3.33;;
19569;SDS011;9931;51.458;7.256;2023-07-16T05:41:56;17.50;;;2.42;;
19569;SDS011;9931;51.458;7.256;2023-07-16T05:44:22;71.43;;;6.00;;
19569;SDS011;9931;51.458;7.256;2023-07-16T05:46:47;52.28;;;4.55;;
19569;SDS011;9931;51.458;7.256;2023-07-16T05:49:12;42.90;;;3.55;;
19569;SDS011;9931;51.458;7.256;2023-07-16T05:51:38;26.98;;;2.72;;
19569;SDS011;9931;51.458;7.256;2023-07-16T05:54:03;52.28;;;4.65;;
19569;SDS011;9931;51.458;7.256;2023-07-16T05:56:28;97.45;;;7.25;;
19569;SDS011;9931;51.458;7.256;2023-07-16T05:58:53;57.07;;;5.10;;
19569;SDS011;9931;51.458;7.256;2023-07-16T06:01:19;24.55;;;2.97;;
19569;SDS011;9931;51.458;7.256;2023-07-16T06:03:44;22.02;;;3.20;;
19569;SDS011;9931;51.458;7.256;2023-07-16T06:06:09;10.77;;;1.83;;
19569;SDS011;9931;51.458;7.256;2023-07-16T06:08:34;23.58;;;2.78;;
19569;SDS011;9931;51.458;7.256;2023-07-16T06:11:00;27.42;;;3.17;;
19569;SDS011;9931;51.458;7.256;2023-07-16T06:13:25;31.40;;;4.43;;
19569;SDS011;9931;51.458;7.256;2023-07-16T06:15:50;20.40;;;3.75;;
19569;SDS011;9931;51.458;7.256;2023-07-16T06:18:15;16.42;;;2.78;;
19569;SDS011;9931;51.458;7.256;2023-07-16T06:20:44;56.95;;;5.30;;
19569;SDS011;9931;51.458;7.256;2023-07-16T06:23:09;20.85;;;2.65;;
19569;SDS011;9931;51.458;7.256;2023-07-16T06:25:36;30.80;;;3.25;;
19569;SDS011;9931;51.458;7.256;2023-07-16T06:28:01;44.97;;;4.03;;
19569;SDS011;9931;51.458;7.256;2023-07-16T06:30:26;61.87;;;5.77;;
19569;SDS011;9931;51.458;7.256;2023-07-16T06:32:51;21.43;;;2.83;;
19569;SDS011;9931;51.458;7.256;2023-07-16T06:35:17;22.80;;;2.55;;
19569;SDS011;9931;51.458;7.256;2023-07-16T06:37:42;23.60;;;2.78;;
19569;SDS011;9931;51.458;7.256;2023-07-16T06:40:07;18.88;;;2.20;;
19569;SDS011;9931;51.458;7.256;2023-07-16T06:42:33;24.52;;;3.38;;
19569;SDS011;9931;51.458;7.256;2023-07-16T06:44:58;9.40;;;2.38;;
19569;SDS011;9931;51.458;7.256;2023-07-16T06:47:23;27.67;;;4.30;;
19569;SDS011;9931;51.458;7.256;2023-07-16T06:49:48;18.35;;;3.22;;
19569;SDS011;9931;51.458;7.256;2023-07-16T06:52:23;20.67;;;3.73;;
19569;SDS011;9931;51.458;7.256;2023-07-16T06:54:52;21.23;;;3.67;;
19569;SDS011;9931;51.458;7.256;2023-07-16T06:57:17;48.47;;;5.20;;
19569;SDS011;9931;51.458;7.256;2023-07-16T06:59:42;28.20;;;4.18;;
19569;SDS011;9931;51.458;7.256;2023-07-16T07:02:07;17.73;;;4.85;;
19569;SDS011;9931;51.458;7.256;2023-07-16T07:04:33;27.15;;;5.53;;
19569;SDS011;9931;51.458;7.256;2023-07-16T07:06:58;18.77;;;4.53;;
19569;SDS011;9931;51.458;7.256;2023-07-16T07:09:23;46.30;;;5.73;;
19569;SDS011;9931;51.458;7.256;2023-07-16T07:11:48;17.23;;;4.17;;
19569;SDS011;9931;51.458;7.256;2023-07-16T07:14:13;6.07;;;4.47;;
19569;SDS011;9931;51.458;7.256;2023-07-16T07:16:39;36.25;;;6.90;;
19569;SDS011;9931;51.458;7.256;2023-07-16T07:19:05;68.07;;;8.88;;
19569;SDS011;9931;51.458;7.256;2023-07-16T07:21:30;62.50;;;8.57;;
19569;SDS011;9931;51.458;7.256;2023-07-16T07:23:55;29.03;;;6.33;;
19569;SDS011;9931;51.458;7.256;2023-07-16T07:26:20;28.70;;;5.47;;
19569;SDS011;9931;51.458;7.256;2023-07-16T07:28:46;23.35;;;3.75;;
19569;SDS011;9931;51.458;7.256;2023-07-16T07:31:11;27.17;;;4.00;;
19569;SDS011;9931;51.458;7.256;2023-07-16T07:33:36;51.40;;;5.32;;
19569;SDS011;9931;51.458;7.256;2023-07-16T07:36:01;29.60;;;4.37;;
19569;SDS011;9931;51.458;7.256;2023-07-16T07:38:26;23.58;;;4.70;;
19569;SDS011;9931;51.458;7.256;2023-07-16T07:40:53;19.08;;;4.05;;
19569;SDS011;9931;51.458;7.256;2023-07-16T07:43:18;43.38;;;6.25;;
19569;SDS011;9931;51.458;7.256;2023-07-16T07:45:43;19.67;;;4.32;;
19569;SDS011;9931;51.458;7.256;2023-07-16T07:48:09;44.23;;;5.53;;
19569;SDS011;9931;51.458;7.256;2023-07-16T07:50:34;35.97;;;5.75;;
19569;SDS011;9931;51.458;7.256;2023-07-16T07:52:59;30.23;;;5.05;;
19569;SDS011;9931;51.458;7.256;2023-07-16T07:55:24;22.55;;;5.20;;
19569;SDS011;9931;51.458;7.256;2023-07-16T07:57:49;29.65;;;5.05;;
19569;SDS011;9931;51.458;7.256;2023-07-16T08:00:15;37.90;;;4.43;;
19569;SDS011;9931;51.458;7.256;2023-07-16T08:02:40;24.45;;;3.78;;
19569;SDS011;9931;51.458;7.256;2023-07-16T08:05:05;31.15;;;3.90;;
19569;SDS011;9931;51.458;7.256;2023-07-16T08:07:31;24.08;;;4.45;;
19569;SDS011;9931;51.458;7.256;2023-07-16T08:09:56;20.40;;;4.93;;
19569;SDS011;9931;51.458;7.256;2023-07-16T08:12:21;28.07;;;6.07;;
19569;SDS011;9931;51.458;7.256;2023-07-16T08:14:47;23.15;;;6.57;;
19569;SDS011;9931;51.458;7.256;2023-07-16T08:17:12;12.32;;;6.72;;
19569;SDS011;9931;51.458;7.256;2023-07-16T08:19:38;37.93;;;8.40;;
19569;SDS011;9931;51.458;7.256;2023-07-16T08:22:03;58.95;;;9.18;;
19569;SDS011;9931;51.458;7.256;2023-07-16T08:24:28;34.00;;;7.13;;
19569;SDS011;9931;51.458;7.256;2023-07-16T08:26:53;67.53;;;9.18;;
19569;SDS011;9931;51.458;7.256;2023-07-16T08:29:19;26.67;;;4.97;;
19569;SDS011;9931;51.458;7.256;2023-07-16T08:31:44;21.20;;;5.47;;
19569;SDS011;9931;51.458;7.256;2023-07-16T08:34:09;27.07;;;4.80;;
19569;SDS011;9931;51.458;7.256;2023-07-16T08:36:35;39.77;;;6.60;;
19569;SDS011;9931;51.458;7.256;2023-07-16T08:39:01;72.50;;;9.02;;
19569;SDS011;9931;51.458;7.256;2023-07-16T08:41:26;46.40;;;6.15;;
19569;SDS011;9931;51.458;7.256;2023-07-16T08:43:51;22.83;;;4.70;;
19569;SDS011;9931;51.458;7.256;2023-07-16T08:46:16;15.67;;;4.33;;
19569;SDS011;9931;51.458;7.256;2023-07-16T08:48:42;19.55;;;5.38;;
19569;SDS011;9931;51.458;7.256;2023-07-16T08:51:07;22.58;;;4.72;;
19569;SDS011;9931;51.458;7.256;2023-07-16T08:53:33;27.17;;;5.40;;
19569;SDS011;9931;51.458;7.256;2023-07-16T08:55:59;17.47;;;5.87;;
19569;SDS011;9931;51.458;7.256;2023-07-16T08:58:25;28.17;;;8.55;;
19569;SDS011;9931;51.458;7.256;2023-07-16T09:00:51;24.50;;;7.00;;
19569;SDS011;9931;51.458;7.256;2023-07-16T09:03:16;33.60;;;7.20;;
19569;SDS011;9931;51.458;7.256;2023-07-16T09:05:42;40.08;;;9.57;;
19569;SDS011;9931;51.458;7.256;2023-07-16T09:08:08;32.85;;;7.88;;
19569;SDS011;9931;51.458;7.256;2023-07-16T09:10:34;17.20;;;7.25;;
19569;SDS011;9931;51.458;7.256;2023-07-16T09:12:59;27.05;;;9.25;;
19569;SDS011;9931;51.458;7.256;2023-07-16T09:15:25;18.50;;;9.38;;
19569;SDS011;9931;51.458;7.256;2023-07-16T09:17:53;24.70;;;10.52;;
19569;SDS011;9931;51.458;7.256;2023-07-16T09:20:18;32.60;;;10.70;;
19569;SDS011;9931;51.458;7.256;2023-07-16T09:22:44;62.60;;;10.52;;
19569;SDS011;9931;51.458;7.256;2023-07-16T09:25:09;26.40;;;7.75;;
19569;SDS011;9931;51.458;7.256;2023-07-16T09:27:34;35.53;;;8.25;;
19569;SDS011;9931;51.458;7.256;2023-07-16T09:30:00;14.18;;;6.45;;
19569;SDS011;9931;51.458;7.256;2023-07-16T09:32:37;37.95;;;8.60;;
19569;SDS011;9931;51.458;7.256;2023-07-16T09:35:10;26.25;;;7.13;;
19569;SDS011;9931;51.458;7.256;2023-07-16T09:37:39;32.97;;;7.57;;
19569;SDS011;9931;51.458;7.256;2023-07-16T09:40:08;55.55;;;8.65;;
19569;SDS011;9931;51.458;7.256;2023-07-16T09:42:38;33.17;;;7.60;;
19569;SDS011;9931;51.458;7.256;2023-07-16T09:45:05;32.00;;;9.38;;
19569;SDS011;9931;51.458;7.256;2023-07-16T09:47:30;57.10;;;12.32;;
19569;SDS011;9931;51.458;7.256;2023-07-16T09:49:55;31.55;;;12.48;;
19569;SDS011;9931;51.458;7.256;2023-07-16T09:52:20;24.23;;;12.32;;
19569;SDS011;9931;51.458;7.256;2023-07-16T09:54:46;31.60;;;9.85;;
19569;SDS011;9931;51.458;7.256;2023-07-16T09:57:11;20.42;;;10.85;;
19569;SDS011;9931;51.458;7.256;2023-07-16T09:59:37;46.03;;;14.10;;
19569;SDS011;9931;51.458;7.256;2023-07-16T10:02:04;30.50;;;13.35;;
19569;SDS011;9931;51.458;7.256;2023-07-16T10:04:38;55.00;;;14.75;;
19569;SDS011;9931;51.458;7.256;2023-07-16T10:07:04;51.55;;;15.85;;
19569;SDS011;9931;51.458;7.256;2023-07-16T10:12:14;30.00;;;24.02;;
19569;SDS011;9931;51.458;7.256;2023-07-16T10:14:40;65.90;;;18.75;;
19569;SDS011;9931;51.458;7.256;2023-07-16T10:17:06;69.28;;;18.02;;
19569;SDS011;9931;51.458;7.256;2023-07-16T10:19:34;70.03;;;19.20;;
19569;SDS011;9931;51.458;7.256;2023-07-16T10:22:00;44.35;;;24.27;;
19569;SDS011;9931;51.458;7.256;2023-07-16T10:24:26;29.23;;;22.50;;
19569;SDS011;9931;51.458;7.256;2023-07-16T10:26:52;63.25;;;25.20;;
19569;SDS011;9931;51.458;7.256;2023-07-16T10:29:17;61.00;;;30.85;;
19569;SDS011;9931;51.458;7.256;2023-07-16T10:31:42;33.95;;;22.00;;
19569;SDS011;9931;51.458;7.256;2023-07-16T10:34:08;31.38;;;22.73;;
19569;SDS011;9931;51.458;7.256;2023-07-16T10:36:40;32.75;;;25.42;;
19569;SDS011;9931;51.458;7.256;2023-07-16T10:39:05;110.75;;;32.22;;
19569;SDS011;9931;51.458;7.256;2023-07-16T10:41:31;49.20;;;35.85;;
19569;SDS011;9931;51.458;7.256;2023-07-16T10:43:58;32.08;;;28.08;;
19569;SDS011;9931;51.458;7.256;2023-07-16T10:46:23;31.38;;;23.33;;
19569;SDS011;9931;51.458;7.256;2023-07-16T10:48:48;30.48;;;27.65;;
19569;SDS011;9931;51.458;7.256;2023-07-16T10:51:17;34.13;;;25.58;;
19569;SDS011;9931;51.458;7.256;2023-07-16T10:53:42;48.53;;;28.73;;
19569;SDS011;9931;51.458;7.256;2023-07-16T10:56:08;47.75;;;43.08;;
19569;SDS011;9931;51.458;7.256;2023-07-16T10:58:33;51.53;;;39.58;;
19569;SDS011;9931;51.458;7.256;2023-07-16T11:00:58;71.57;;;36.67;;
19569;SDS011;9931;51.458;7.256;2023-07-16T11:03:24;38.83;;;31.35;;
19569;SDS011;9931;51.458;7.256;2023-07-16T11:05:49;45.78;;;38.38;;
19569;SDS011;9931;51.458;7.256;2023-07-16T11:08:21;41.07;;;37.37;;
19569;SDS011;9931;51.458;7.256;2023-07-16T11:10:52;38.60;;;29.40;;
19569;SDS011;9931;51.458;7.256;2023-07-16T11:13:17;35.10;;;23.17;;
19569;SDS011;9931;51.458;7.256;2023-07-16T11:15:42;46.90;;;24.27;;
19569;SDS011;9931;51.458;7.256;2023-07-16T11:18:08;32.60;;;22.67;;
19569;SDS011;9931;51.458;7.256;2023-07-16T11:20:33;55.03;;;26.00;;
19569;SDS011;9931;51.458;7.256;2023-07-16T11:22:58;30.35;;;27.00;;
19569;SDS011;9931;51.458;7.256;2023-07-16T11:25:25;50.38;;;31.25;;
19569;SDS011;9931;51.458;7.256;2023-07-16T11:27:53;38.45;;;33.33;;
19569;SDS011;9931;51.458;7.256;2023-07-16T11:30:21;47.60;;;43.53;;
19569;SDS011;9931;51.458;7.256;2023-07-16T11:32:47;50.38;;;44.05;;
19569;SDS011;9931;51.458;7.256;2023-07-16T11:35:17;41.08;;;37.47;;
19569;SDS011;9931;51.458;7.256;2023-07-16T11:37:43;53.33;;;39.03;;
19569;SDS011;9931;51.458;7.256;2023-07-16T11:40:11;33.47;;;30.70;;
19569;SDS011;9931;51.458;7.256;2023-07-16T11:42:39;45.63;;;34.17;;
19569;SDS011;9931;51.458;7.256;2023-07-16T11:45:05;43.60;;;39.70;;
19569;SDS011;9931;51.458;7.256;2023-07-16T11:47:31;44.92;;;34.13;;
19569;SDS011;9931;51.458;7.256;2023-07-16T11:49:56;40.33;;;26.13;;
19569;SDS011;9931;51.458;7.256;2023-07-16T11:52:25;26.50;;;23.17;;
19569;SDS011;9931;51.458;7.256;2023-07-16T11:54:51;25.38;;;21.05;;
19569;SDS011;9931;51.458;7.256;2023-07-16T11:57:17;116.50;;;22.02;;
19569;SDS011;9931;51.458;7.256;2023-07-16T11:59:42;127.25;;;24.00;;
19569;SDS011;9931;51.458;7.256;2023-07-16T12:02:07;104.22;;;24.30;;
19569;SDS011;9931;51.458;7.256;2023-07-16T12:04:33;49.20;;;20.25;;
19569;SDS011;9931;51.458;7.256;2023-07-16T12:07:00;29.45;;;20.05;;
19569;SDS011;9931;51.458;7.256;2023-07-16T12:09:25;25.75;;;18.77;;
19569;SDS011;9931;51.458;7.256;2023-07-16T12:11:50;28.03;;;16.20;;
19569;SDS011;9931;51.458;7.256;2023-07-16T12:14:15;29.90;;;17.02;;
19569;SDS011;9931;51.458;7.256;2023-07-16T12:16:41;77.65;;;20.95;;
19569;SDS011;9931;51.458;7.256;2023-07-16T12:19:07;85.45;;;26.23;;
19569;SDS011;9931;51.458;7.256;2023-07-16T12:21:32;55.20;;;25.92;;
19569;SDS011;9931;51.458;7.256;2023-07-16T12:23:57;107.43;;;24.60;;
19569;SDS011;9931;51.458;7.256;2023-07-16T12:26:23;63.13;;;22.05;;
19569;SDS011;9931;51.458;7.256;2023-07-16T12:28:48;76.82;;;19.65;;
19569;SDS011;9931;51.458;7.256;2023-07-16T12:31:13;124.85;;;22.58;;
19569;SDS011;9931;51.458;7.256;2023-07-16T12:33:39;95.80;;;29.52;;
19569;SDS011;9931;51.458;7.256;2023-07-16T12:36:04;34.95;;;18.30;;
19569;SDS011;9931;51.458;7.256;2023-07-16T12:38:29;56.53;;;33.63;;
19569;SDS011;9931;51.458;7.256;2023-07-16T12:40:54;41.47;;;15.73;;
19569;SDS011;9931;51.458;7.256;2023-07-16T12:43:19;32.45;;;22.02;;
19569;SDS011;9931;51.458;7.256;2023-07-16T12:45:45;34.10;;;18.73;;
19569;SDS011;9931;51.458;7.256;2023-07-16T12:48:10;33.57;;;25.67;;
19569;SDS011;9931;51.458;7.256;2023-07-16T12:50:35;55.37;;;23.30;;
19569;SDS011;9931;51.458;7.256;2023-07-16T12:53:00;25.02;;;20.38;;
19569;SDS011;9931;51.458;7.256;2023-07-16T12:55:25;23.77;;;19.83;;
19569;SDS011;9931;51.458;7.256;2023-07-16T12:57:50;29.53;;;21.27;;
19569;SDS011;9931;51.458;7.256;2023-07-16T13:00:16;42.63;;;27.40;;
19569;SDS011;9931;51.458;7.256;2023-07-16T13:02:41;44.58;;;19.85;;
19569;SDS011;9931;51.458;7.256;2023-07-16T13:05:06;38.28;;;18.17;;
19569;SDS011;9931;51.458;7.256;2023-07-16T13:07:31;37.67;;;23.67;;
19569;SDS011;9931;51.458;7.256;2023-07-16T13:09:57;45.90;;;20.40;;
19569;SDS011;9931;51.458;7.256;2023-07-16T13:12:22;34.95;;;22.17;;
19569;SDS011;9931;51.458;7.256;2023-07-16T13:14:47;38.78;;;23.17;;
19569;SDS011;9931;51.458;7.256;2023-07-16T13:17:12;47.97;;;23.27;;
19569;SDS011;9931;51.458;7.256;2023-07-16T13:19:40;57.38;;;28.75;;
19569;SDS011;9931;51.458;7.256;2023-07-16T13:22:05;38.72;;;25.65;;
19569;SDS011;9931;51.458;7.256;2023-07-16T13:24:30;42.85;;;24.92;;
19569;SDS011;9931;51.458;7.256;2023-07-16T13:26:55;39.17;;;30.67;;
19569;SDS011;9931;51.458;7.256;2023-07-16T13:29:20;88.37;;;41.17;;
19569;SDS011;9931;51.458;7.256;2023-07-16T13:31:46;63.28;;;57.47;;
19569;SDS011;9931;51.458;7.256;2023-07-16T13:34:11;54.58;;;49.47;;
19569;SDS011;9931;51.458;7.256;2023-07-16T13:36:36;58.97;;;50.83;;
19569;SDS011;9931;51.458;7.256;2023-07-16T13:39:01;119.83;;;46.63;;
19569;SDS011;9931;51.458;7.256;2023-07-16T13:41:29;47.20;;;41.15;;
19569;SDS011;9931;51.458;7.256;2023-07-16T13:43:55;47.85;;;42.30;;
19569;SDS011;9931;51.458;7.256;2023-07-16T13:46:20;32.95;;;31.15;;
19569;SDS011;9931;51.458;7.256;2023-07-16T13:48:45;39.85;;;32.78;;
19569;SDS011;9931;51.458;7.256;2023-07-16T13:51:10;82.57;;;34.80;;
19569;SDS011;9931;51.458;7.256;2023-07-16T13:53:36;54.90;;;35.73;;
19569;SDS011;9931;51.458;7.256;2023-07-16T13:56:01;66.43;;;38.47;;
19569;SDS011;9931;51.458;7.256;2023-07-16T13:58:26;63.97;;;34.60;;
19569;SDS011;9931;51.458;7.256;2023-07-16T14:00:51;66.87;;;36.03;;
19569;SDS011;9931;51.458;7.256;2023-07-16T14:03:16;69.03;;;40.83;;
19569;SDS011;9931;51.458;7.256;2023-07-16T14:05:41;89.10;;;33.63;;
19569;SDS011;9931;51.458;7.256;2023-07-16T14:08:07;83.53;;;46.47;;
19569;SDS011;9931;51.458;7.256;2023-07-16T14:10:32;53.05;;;30.38;;
19569;SDS011;9931;51.458;7.256;2023-07-16T14:12:57;55.60;;;32.15;;
19569;SDS011;9931;51.458;7.256;2023-07-16T14:15:23;30.85;;;24.77;;
19569;SDS011;9931;51.458;7.256;2023-07-16T14:17:48;48.50;;;40.40;;
19569;SDS011;9931;51.458;7.256;2023-07-16T14:20:13;34.33;;;24.00;;
19569;SDS011;9931;51.458;7.256;2023-07-16T14:22:39;30.03;;;22.93;;
19569;SDS011;9931;51.458;7.256;2023-07-16T14:25:04;37.97;;;29.77;;
19569;SDS011;9931;51.458;7.256;2023-07-16T14:27:29;64.30;;;33.10;;
19569;SDS011;9931;51.458;7.256;2023-07-16T14:29:56;70.95;;;34.17;;
19569;SDS011;9931;51.458;7.256;2023-07-16T14:32:21;48.95;;;36.65;;
19569;SDS011;9931;51.458;7.256;2023-07-16T14:34:47;58.78;;;31.40;;
19569;SDS011;9931;51.458;7.256;2023-07-16T14:37:12;40.47;;;29.93;;
19569;SDS011;9931;51.458;7.256;2023-07-16T14:39:37;92.32;;;35.92;;
19569;SDS011;9931;51.458;7.256;2023-07-16T14:42:03;54.57;;;24.90;;